Xiang Long — V3VA7 — position and weather

sailwx.info

Track history (hours):
 
Tides and Currents Weather Stations Pressure Air Temp Water Temp Dewpoint Dewpoint Depression Visibility Wind Speed Wind Dir Waves Ship Positions

Xiang Long

Last reported at 2018-Jun-17 18:20 UTC. Time now 2018-Jun-19 12:34 UTC.
Position N 34°25' E 134°21'.

Length 75 m; draft 4.2 m.

Type: Cargo ship. MMSI: 312031000.

Date/timePositionNaut miles runAvg speedWind from/ knotsBaromVisibWave heightAir tempDewpointWater temp
2018-Jun-17 18:20N 34°25' E 134°21'3 8.7
2018-Jun-17 18:01N 34°26' E 134°25'4 8.7
2018-Jun-17 17:30N 34°28' E 134°30'4 8.9
2018-Jun-17 17:01N 34°30' E 134°34'5 9.2
2018-Jun-17 16:29N 34°32' E 134°40'510.1
2018-Jun-17 16:01N 34°33' E 134°45'611.3
2018-Jun-17 15:30N 34°35' E 134°52'611.8
2018-Jun-17 15:00N 34°38' E 134°58'612.0
2018-Jun-17 14:30N 34°35' E 135°05'510.0
2018-Jun-17 14:01N 34°30' E 135°05'510.5
2018-Jun-17 13:31N 34°25' E 135°03'510.5
2018-Jun-17 13:01N 34°20' E 135°01'611.6
2018-Jun-17 12:31N 34°15' E 134°59'5 9.3
2018-Jun-17 12:01N 34°10' E 134°60'5 9.9
2018-Jun-17 11:30N 34°05' E 134°60'510.1
2018-Jun-17 11:00N 34°00' E 135°00'5 9.9
2018-Jun-17 10:31N 33°55' E 135°01'510.3
2018-Jun-17 09:59N 33°50' E 135°03'244 7.9
2018-Jun-16 02:53N 35°09' E 139°44'511.3
2018-Jun-16 02:29N 35°13' E 139°46'510.6
2018-Jun-16 02:01N 35°17' E 139°45'5 9.9
2018-Jun-16 01:31N 35°22' E 139°42'4 8.8
2018-Jun-16 01:00N 35°25' E 139°46'4 8.6
2018-Jun-16 00:31N 35°23' E 139°50'3 2.6
2018-Jun-15 23:27N 35°22' E 139°53'0 0.0
2018-Jun-15 17:21N 35°22' E 139°53'0 0.0
2018-Jun-15 16:57N 35°22' E 139°53'0 0.0
2018-Jun-15 16:21N 35°22' E 139°53'0 0.0
2018-Jun-15 15:51N 35°22' E 139°53'0 0.0
2018-Jun-15 15:27N 35°22' E 139°53'0 0.0
2018-Jun-15 14:57N 35°22' E 139°53'0 0.0
2018-Jun-15 13:51N 35°22' E 139°53'0 0.0
2018-Jun-15 12:24N 35°22' E 139°53'0 0.0
2018-Jun-15 11:45N 35°22' E 139°53'0 0.0
2018-Jun-15 11:27N 35°22' E 139°53'0 0.0
2018-Jun-15 08:36N 35°22' E 139°53'0 0.0
2018-Jun-15 08:27N 35°22' E 139°53'0 0.0
2018-Jun-15 07:54N 35°22' E 139°53'0 0.0
2018-Jun-15 07:15N 35°22' E 139°53'0 0.0
2018-Jun-15 06:21N 35°22' E 139°53'0 0.0
2018-Jun-15 06:00N 35°22' E 139°53'0 0.0
2018-Jun-15 04:39N 35°22' E 139°53'0 0.0
2018-Jun-15 04:21N 35°22' E 139°53'0 0.0
2018-Jun-15 03:57N 35°22' E 139°53'0 0.0
2018-Jun-15 03:30N 35°22' E 139°53'0 0.0
2018-Jun-15 02:18N 35°22' E 139°53'0 0.0
2018-Jun-15 01:57N 35°22' E 139°53'0 0.0
2018-Jun-15 01:27N 35°22' E 139°53'0 0.0
2018-Jun-15 00:48N 35°22' E 139°53'0 0.0
2018-Jun-15 00:30N 35°22' E 139°53'0 0.0
2018-Jun-15 00:00N 35°22' E 139°53'0 0.0
2018-Jun-14 23:12N 35°22' E 139°53'0 0.0
2018-Jun-14 22:51N 35°22' E 139°53'0 0.0
2018-Jun-14 21:30N 35°22' E 139°53'0 0.0
2018-Jun-14 20:57N 35°22' E 139°53'0 0.0
2018-Jun-14 16:32N 35°22' E 139°53'0 0.0
2018-Jun-14 16:29N 35°22' E 139°53'0 0.0
2018-Jun-14 15:53N 35°22' E 139°53'0 0.0
2018-Jun-14 15:20N 35°22' E 139°53'0 0.0
2018-Jun-14 14:56N 35°22' E 139°53'0 0.0
2018-Jun-14 14:26N 35°22' E 139°53'0 0.0
2018-Jun-14 13:56N 35°22' E 139°53'0 0.0
2018-Jun-14 13:26N 35°22' E 139°53'0 0.0
2018-Jun-14 12:56N 35°22' E 139°53'0 0.0
2018-Jun-14 12:26N 35°22' E 139°53'0 0.0
2018-Jun-14 11:56N 35°22' E 139°53'0 0.0
2018-Jun-14 11:29N 35°22' E 139°53'0 0.0
2018-Jun-14 10:53N 35°22' E 139°53'0 0.0
2018-Jun-14 10:26N 35°22' E 139°53'0 0.0
2018-Jun-14 09:53N 35°22' E 139°53'0 0.0
2018-Jun-14 09:26N 35°22' E 139°53'0 0.0
2018-Jun-14 08:59N 35°22' E 139°53'0 0.0
2018-Jun-14 07:50N 35°22' E 139°53'0 0.0
2018-Jun-14 07:14N 35°22' E 139°53'0 0.0
2018-Jun-14 06:56N 35°22' E 139°53'0 0.0
2018-Jun-14 06:29N 35°22' E 139°53'0 0.0
2018-Jun-14 05:56N 35°22' E 139°53'0 0.0
2018-Jun-14 05:29N 35°22' E 139°53'0 0.0
2018-Jun-14 04:50N 35°22' E 139°53'0 0.0
2018-Jun-14 04:26N 35°22' E 139°53'0 0.0
2018-Jun-14 03:59N 35°22' E 139°53'0 0.0
2018-Jun-14 03:29N 35°22' E 139°53'0 0.0
2018-Jun-14 02:59N 35°22' E 139°53'0 0.0
2018-Jun-14 02:29N 35°22' E 139°53'0 0.0
2018-Jun-14 01:59N 35°22' E 139°53'0 0.0
2018-Jun-14 01:29N 35°22' E 139°53'0 0.0
2018-Jun-14 00:56N 35°22' E 139°53'0 0.0
2018-Jun-14 00:29N 35°22' E 139°53'0 0.0
2018-Jun-13 23:59N 35°22' E 139°53'0 0.0
2018-Jun-13 23:29N 35°22' E 139°53'0 0.0
2018-Jun-13 22:59N 35°22' E 139°53'0 0.0
2018-Jun-13 22:26N 35°22' E 139°53'0 0.0
2018-Jun-13 21:56N 35°22' E 139°53'0 0.0
2018-Jun-13 21:29N 35°22' E 139°53'0 0.0
2018-Jun-13 20:44N 35°22' E 139°53'0 0.0
2018-Jun-13 20:26N 35°22' E 139°53'0 0.0
2018-Jun-13 19:56N 35°22' E 139°53'0 0.0
2018-Jun-13 19:26N 35°22' E 139°53'0 0.0
2018-Jun-13 18:50N 35°22' E 139°53'0 0.0
2018-Jun-13 18:29N 35°22' E 139°53'0 0.0
2018-Jun-13 17:56N 35°22' E 139°53'0 0.0
2018-Jun-13 17:26N 35°22' E 139°53'0 0.0
2018-Jun-13 16:56N 35°22' E 139°53'0 0.0
2018-Jun-13 16:29N 35°22' E 139°53'0 0.0
2018-Jun-13 15:50N 35°22' E 139°53'0 0.0
2018-Jun-13 15:29N 35°22' E 139°53'0 0.0
2018-Jun-13 14:56N 35°22' E 139°53'0 0.0
2018-Jun-13 14:26N 35°22' E 139°53'0 0.0
2018-Jun-13 13:50N 35°22' E 139°53'0 0.0
2018-Jun-13 13:29N 35°22' E 139°53'0 0.0
2018-Jun-13 12:05N 35°22' E 139°53'0 0.0
2018-Jun-13 11:47N 35°22' E 139°53'0 0.0
2018-Jun-13 11:26N 35°22' E 139°53'0 0.0
2018-Jun-13 10:59N 35°22' E 139°53'0 0.0
2018-Jun-13 10:26N 35°22' E 139°53'0 0.0
2018-Jun-13 09:56N 35°22' E 139°53'0 0.0
2018-Jun-13 09:26N 35°22' E 139°53'0 0.0
2018-Jun-13 08:56N 35°22' E 139°53'0 0.0
2018-Jun-13 08:23N 35°22' E 139°53'0 0.0
2018-Jun-13 07:49N 35°22' E 139°53'0 0.0
2018-Jun-13 06:18N 35°22' E 139°53'2 6.1
2018-Jun-13 05:59N 35°23' E 139°51'2 2.3
2018-Jun-13 05:04N 35°25' E 139°51'0 0.1
2018-Jun-13 04:04N 35°25' E 139°51'0 0.1
2018-Jun-13 03:58N 35°25' E 139°51'0 0.0
2018-Jun-13 03:25N 35°25' E 139°51'0 0.0
2018-Jun-13 02:22N 35°25' E 139°51'0 0.0
2018-Jun-13 01:40N 35°25' E 139°51'0 0.0
2018-Jun-13 01:28N 35°25' E 139°51'0 0.0
2018-Jun-13 00:58N 35°25' E 139°51'0 0.0
2018-Jun-13 00:16N 35°25' E 139°51'0 0.0
2018-Jun-12 23:52N 35°25' E 139°51'0 0.0
2018-Jun-12 23:28N 35°25' E 139°51'0 0.0
2018-Jun-12 22:55N 35°25' E 139°51'0 0.0
2018-Jun-12 22:28N 35°25' E 139°51'0 0.0
2018-Jun-12 21:52N 35°25' E 139°51'0 0.0
2018-Jun-12 19:40N 35°25' E 139°51'0 0.0
2018-Jun-12 19:28N 35°25' E 139°51'0 0.0
2018-Jun-12 18:43N 35°25' E 139°51'0 0.0
2018-Jun-12 18:13N 35°25' E 139°51'0 0.0
2018-Jun-12 17:52N 35°25' E 139°51'0 0.0
2018-Jun-12 15:37N 35°25' E 139°51'0 0.0
2018-Jun-12 15:07N 35°25' E 139°51'0 0.0
2018-Jun-12 12:22N 35°25' E 139°51'0 0.0
2018-Jun-12 10:40N 35°25' E 139°51'0 0.0
2018-Jun-12 10:22N 35°25' E 139°51'0 0.3
2018-Jun-12 10:00N 35°25' E 139°51'4 8.9
2018-Jun-12 09:30N 35°29' E 139°51'  
2018-Jun-09 22:31N 35°33' E 140°02'2 6.9
2018-Jun-09 22:10N 35°32' E 139°60'2 7.9
2018-Jun-09 21:58N 35°32' E 139°58'4 8.0
2018-Jun-09 21:30N 35°30' E 139°54'4 8.2
2018-Jun-09 21:00N 35°27' E 139°50'4 8.0
2018-Jun-09 20:30N 35°25' E 139°47'4 8.2
2018-Jun-09 20:00N 35°21' E 139°45'4 7.2
2018-Jun-09 19:30N 35°17' E 139°45'4 8.4
2018-Jun-09 19:00N 35°13' E 139°47'249 8.8
2018-Jun-08 14:47N 33°50' E 135°02'3 9.1
2018-Jun-08 14:30N 33°53' E 135°01'5 9.3
2018-Jun-08 14:00N 33°57' E 135°00'4 8.9
2018-Jun-08 13:30N 34°02' E 134°60'5 9.2
2018-Jun-08 13:00N 34°06' E 134°59'5 9.2
2018-Jun-08 12:30N 34°11' E 134°58'510.1
2018-Jun-08 12:00N 34°16' E 134°58'510.0
2018-Jun-08 11:30N 34°21' E 134°60'5 9.2
2018-Jun-08 11:00N 34°24' E 135°03'5 9.3
2018-Jun-08 10:30N 34°27' E 135°08'5 9.4
2018-Jun-08 10:00N 34°29' E 135°13'5 9.9
2018-Jun-08 09:30N 34°31' E 135°19'4 7.3
2018-Jun-08 09:00N 34°31' E 135°23'1 1.3
2018-Jun-08 08:29N 34°31' E 135°23'0 0.0
2018-Jun-08 07:59N 34°31' E 135°23'0 0.0
2018-Jun-08 07:29N 34°31' E 135°23'0 0.0
2018-Jun-08 06:59N 34°31' E 135°23'0 0.0
2018-Jun-08 06:29N 34°31' E 135°23'0 0.0
2018-Jun-08 05:59N 34°31' E 135°23'0 0.0
2018-Jun-08 05:23N 34°31' E 135°23'0 0.0
2018-Jun-08 04:53N 34°31' E 135°23'0 0.0
2018-Jun-08 04:29N 34°31' E 135°23'0 0.0
2018-Jun-08 03:53N 34°31' E 135°23'0 0.0
2018-Jun-08 03:29N 34°31' E 135°23'0 0.0
2018-Jun-08 02:53N 34°31' E 135°23'0 0.0
2018-Jun-08 02:23N 34°31' E 135°23'0 0.0
2018-Jun-07 23:35N 34°31' E 135°23'0 0.0
2018-Jun-07 23:05N 34°31' E 135°23'0 0.0
2018-Jun-07 22:35N 34°31' E 135°23'0 0.0
2018-Jun-07 22:29N 34°31' E 135°23'1 1.0
2018-Jun-07 21:59N 34°31' E 135°23'1 0.7
2018-Jun-07 20:03N 34°32' E 135°22'0 0.0
2018-Jun-07 19:39N 34°32' E 135°22'0 0.0
2018-Jun-07 19:27N 34°32' E 135°22'  
Track history (hours):
 
Tides and Currents Weather Stations Pressure Air Temp Water Temp Dewpoint Dewpoint Depression Visibility Wind Speed Wind Dir Waves Ship Positions

Xiang Long

Last reported at 2018-Jun-17 18:20 UTC. Time now 2018-Jun-19 12:34 UTC.
Position N 34°25' E 134°21'.

Length 75 m; draft 4.2 m.

Type: Cargo ship. MMSI: 312031000.

Date/timePositionNaut miles runAvg speedWind from/ knotsBaromVisibWave heightAir tempDewpointWater temp
2018-Jun-17 18:20N 34°25' E 134°21'3 8.7
2018-Jun-17 18:01N 34°26' E 134°25'4 8.7
2018-Jun-17 17:30N 34°28' E 134°30'4 8.9
2018-Jun-17 17:01N 34°30' E 134°34'5 9.2
2018-Jun-17 16:29N 34°32' E 134°40'510.1
2018-Jun-17 16:01N 34°33' E 134°45'611.3
2018-Jun-17 15:30N 34°35' E 134°52'611.8
2018-Jun-17 15:00N 34°38' E 134°58'612.0
2018-Jun-17 14:30N 34°35' E 135°05'510.0
2018-Jun-17 14:01N 34°30' E 135°05'510.5
2018-Jun-17 13:31N 34°25' E 135°03'510.5
2018-Jun-17 13:01N 34°20' E 135°01'611.6
2018-Jun-17 12:31N 34°15' E 134°59'5 9.3
2018-Jun-17 12:01N 34°10' E 134°60'5 9.9
2018-Jun-17 11:30N 34°05' E 134°60'510.1
2018-Jun-17 11:00N 34°00' E 135°00'5 9.9
2018-Jun-17 10:31N 33°55' E 135°01'510.3
2018-Jun-17 09:59N 33°50' E 135°03'244 7.9
2018-Jun-16 02:53N 35°09' E 139°44'511.3
2018-Jun-16 02:29N 35°13' E 139°46'510.6
2018-Jun-16 02:01N 35°17' E 139°45'5 9.9
2018-Jun-16 01:31N 35°22' E 139°42'4 8.8
2018-Jun-16 01:00N 35°25' E 139°46'4 8.6
2018-Jun-16 00:31N 35°23' E 139°50'3 2.6
2018-Jun-15 23:27N 35°22' E 139°53'0 0.0
2018-Jun-15 17:21N 35°22' E 139°53'0 0.0
2018-Jun-15 16:57N 35°22' E 139°53'0 0.0
2018-Jun-15 16:21N 35°22' E 139°53'0 0.0
2018-Jun-15 15:51N 35°22' E 139°53'0 0.0
2018-Jun-15 15:27N 35°22' E 139°53'0 0.0
2018-Jun-15 14:57N 35°22' E 139°53'0 0.0
2018-Jun-15 13:51N 35°22' E 139°53'0 0.0
2018-Jun-15 12:24N 35°22' E 139°53'0 0.0
2018-Jun-15 11:45N 35°22' E 139°53'0 0.0
2018-Jun-15 11:27N 35°22' E 139°53'0 0.0
2018-Jun-15 08:36N 35°22' E 139°53'0 0.0
2018-Jun-15 08:27N 35°22' E 139°53'0 0.0
2018-Jun-15 07:54N 35°22' E 139°53'0 0.0
2018-Jun-15 07:15N 35°22' E 139°53'0 0.0
2018-Jun-15 06:21N 35°22' E 139°53'0 0.0
2018-Jun-15 06:00N 35°22' E 139°53'0 0.0
2018-Jun-15 04:39N 35°22' E 139°53'0 0.0
2018-Jun-15 04:21N 35°22' E 139°53'0 0.0
2018-Jun-15 03:57N 35°22' E 139°53'0 0.0
2018-Jun-15 03:30N 35°22' E 139°53'0 0.0
2018-Jun-15 02:18N 35°22' E 139°53'0 0.0
2018-Jun-15 01:57N 35°22' E 139°53'0 0.0
2018-Jun-15 01:27N 35°22' E 139°53'0 0.0
2018-Jun-15 00:48N 35°22' E 139°53'0 0.0
2018-Jun-15 00:30N 35°22' E 139°53'0 0.0
2018-Jun-15 00:00N 35°22' E 139°53'0 0.0
2018-Jun-14 23:12N 35°22' E 139°53'0 0.0
2018-Jun-14 22:51N 35°22' E 139°53'0 0.0
2018-Jun-14 21:30N 35°22' E 139°53'0 0.0
2018-Jun-14 20:57N 35°22' E 139°53'0 0.0
2018-Jun-14 16:32N 35°22' E 139°53'0 0.0
2018-Jun-14 16:29N 35°22' E 139°53'0 0.0
2018-Jun-14 15:53N 35°22' E 139°53'0 0.0
2018-Jun-14 15:20N 35°22' E 139°53'0 0.0
2018-Jun-14 14:56N 35°22' E 139°53'0 0.0
2018-Jun-14 14:26N 35°22' E 139°53'0 0.0
2018-Jun-14 13:56N 35°22' E 139°53'0 0.0
2018-Jun-14 13:26N 35°22' E 139°53'0 0.0
2018-Jun-14 12:56N 35°22' E 139°53'0 0.0
2018-Jun-14 12:26N 35°22' E 139°53'0 0.0
2018-Jun-14 11:56N 35°22' E 139°53'0 0.0
2018-Jun-14 11:29N 35°22' E 139°53'0 0.0
2018-Jun-14 10:53N 35°22' E 139°53'0 0.0
2018-Jun-14 10:26N 35°22' E 139°53'0 0.0
2018-Jun-14 09:53N 35°22' E 139°53'0 0.0
2018-Jun-14 09:26N 35°22' E 139°53'0 0.0
2018-Jun-14 08:59N 35°22' E 139°53'0 0.0
2018-Jun-14 07:50N 35°22' E 139°53'0 0.0
2018-Jun-14 07:14N 35°22' E 139°53'0 0.0
2018-Jun-14 06:56N 35°22' E 139°53'0 0.0
2018-Jun-14 06:29N 35°22' E 139°53'0 0.0
2018-Jun-14 05:56N 35°22' E 139°53'0 0.0
2018-Jun-14 05:29N 35°22' E 139°53'0 0.0
2018-Jun-14 04:50N 35°22' E 139°53'0 0.0
2018-Jun-14 04:26N 35°22' E 139°53'0 0.0
2018-Jun-14 03:59N 35°22' E 139°53'0 0.0
2018-Jun-14 03:29N 35°22' E 139°53'0 0.0
2018-Jun-14 02:59N 35°22' E 139°53'0 0.0
2018-Jun-14 02:29N 35°22' E 139°53'0 0.0
2018-Jun-14 01:59N 35°22' E 139°53'0 0.0
2018-Jun-14 01:29N 35°22' E 139°53'0 0.0
2018-Jun-14 00:56N 35°22' E 139°53'0 0.0
2018-Jun-14 00:29N 35°22' E 139°53'0 0.0
2018-Jun-13 23:59N 35°22' E 139°53'0 0.0
2018-Jun-13 23:29N 35°22' E 139°53'0 0.0
2018-Jun-13 22:59N 35°22' E 139°53'0 0.0
2018-Jun-13 22:26N 35°22' E 139°53'0 0.0
2018-Jun-13 21:56N 35°22' E 139°53'0 0.0
2018-Jun-13 21:29N 35°22' E 139°53'0 0.0
2018-Jun-13 20:44N 35°22' E 139°53'0 0.0
2018-Jun-13 20:26N 35°22' E 139°53'0 0.0
2018-Jun-13 19:56N 35°22' E 139°53'0 0.0
2018-Jun-13 19:26N 35°22' E 139°53'0 0.0
2018-Jun-13 18:50N 35°22' E 139°53'0 0.0
2018-Jun-13 18:29N 35°22' E 139°53'0 0.0
2018-Jun-13 17:56N 35°22' E 139°53'0 0.0
2018-Jun-13 17:26N 35°22' E 139°53'0 0.0
2018-Jun-13 16:56N 35°22' E 139°53'0 0.0
2018-Jun-13 16:29N 35°22' E 139°53'0 0.0
2018-Jun-13 15:50N 35°22' E 139°53'0 0.0
2018-Jun-13 15:29N 35°22' E 139°53'0 0.0
2018-Jun-13 14:56N 35°22' E 139°53'0 0.0
2018-Jun-13 14:26N 35°22' E 139°53'0 0.0
2018-Jun-13 13:50N 35°22' E 139°53'0 0.0
2018-Jun-13 13:29N 35°22' E 139°53'0 0.0
2018-Jun-13 12:05N 35°22' E 139°53'0 0.0
2018-Jun-13 11:47N 35°22' E 139°53'0 0.0
2018-Jun-13 11:26N 35°22' E 139°53'0 0.0
2018-Jun-13 10:59N 35°22' E 139°53'0 0.0
2018-Jun-13 10:26N 35°22' E 139°53'0 0.0
2018-Jun-13 09:56N 35°22' E 139°53'0 0.0
2018-Jun-13 09:26N 35°22' E 139°53'0 0.0
2018-Jun-13 08:56N 35°22' E 139°53'0 0.0
2018-Jun-13 08:23N 35°22' E 139°53'0 0.0
2018-Jun-13 07:49N 35°22' E 139°53'0 0.0
2018-Jun-13 06:18N 35°22' E 139°53'2 6.1
2018-Jun-13 05:59N 35°23' E 139°51'2 2.3
2018-Jun-13 05:04N 35°25' E 139°51'0 0.1
2018-Jun-13 04:04N 35°25' E 139°51'0 0.1
2018-Jun-13 03:58N 35°25' E 139°51'0 0.0
2018-Jun-13 03:25N 35°25' E 139°51'0 0.0
2018-Jun-13 02:22N 35°25' E 139°51'0 0.0
2018-Jun-13 01:40N 35°25' E 139°51'0 0.0
2018-Jun-13 01:28N 35°25' E 139°51'0 0.0
2018-Jun-13 00:58N 35°25' E 139°51'0 0.0
2018-Jun-13 00:16N 35°25' E 139°51'0 0.0
2018-Jun-12 23:52N 35°25' E 139°51'0 0.0
2018-Jun-12 23:28N 35°25' E 139°51'0 0.0
2018-Jun-12 22:55N 35°25' E 139°51'0 0.0
2018-Jun-12 22:28N 35°25' E 139°51'0 0.0
2018-Jun-12 21:52N 35°25' E 139°51'0 0.0
2018-Jun-12 19:40N 35°25' E 139°51'0 0.0
2018-Jun-12 19:28N 35°25' E 139°51'0 0.0
2018-Jun-12 18:43N 35°25' E 139°51'0 0.0
2018-Jun-12 18:13N 35°25' E 139°51'0 0.0
2018-Jun-12 17:52N 35°25' E 139°51'0 0.0
2018-Jun-12 15:37N 35°25' E 139°51'0 0.0
2018-Jun-12 15:07N 35°25' E 139°51'0 0.0
2018-Jun-12 12:22N 35°25' E 139°51'0 0.0
2018-Jun-12 10:40N 35°25' E 139°51'0 0.0
2018-Jun-12 10:22N 35°25' E 139°51'0 0.3
2018-Jun-12 10:00N 35°25' E 139°51'4 8.9
2018-Jun-12 09:30N 35°29' E 139°51'  
2018-Jun-09 22:31N 35°33' E 140°02'2 6.9
2018-Jun-09 22:10N 35°32' E 139°60'2 7.9
2018-Jun-09 21:58N 35°32' E 139°58'4 8.0
2018-Jun-09 21:30N 35°30' E 139°54'4 8.2
2018-Jun-09 21:00N 35°27' E 139°50'4 8.0
2018-Jun-09 20:30N 35°25' E 139°47'4 8.2
2018-Jun-09 20:00N 35°21' E 139°45'4 7.2
2018-Jun-09 19:30N 35°17' E 139°45'4 8.4
2018-Jun-09 19:00N 35°13' E 139°47'249 8.8
2018-Jun-08 14:47N 33°50' E 135°02'3 9.1
2018-Jun-08 14:30N 33°53' E 135°01'5 9.3
2018-Jun-08 14:00N 33°57' E 135°00'4 8.9
2018-Jun-08 13:30N 34°02' E 134°60'5 9.2
2018-Jun-08 13:00N 34°06' E 134°59'5 9.2
2018-Jun-08 12:30N 34°11' E 134°58'510.1
2018-Jun-08 12:00N 34°16' E 134°58'510.0
2018-Jun-08 11:30N 34°21' E 134°60'5 9.2
2018-Jun-08 11:00N 34°24' E 135°03'5 9.3
2018-Jun-08 10:30N 34°27' E 135°08'5 9.4
2018-Jun-08 10:00N 34°29' E 135°13'5 9.9
2018-Jun-08 09:30N 34°31' E 135°19'4 7.3
2018-Jun-08 09:00N 34°31' E 135°23'1 1.3
2018-Jun-08 08:29N 34°31' E 135°23'0 0.0
2018-Jun-08 07:59N 34°31' E 135°23'0 0.0
2018-Jun-08 07:29N 34°31' E 135°23'0 0.0
2018-Jun-08 06:59N 34°31' E 135°23'0 0.0
2018-Jun-08 06:29N 34°31' E 135°23'0 0.0
2018-Jun-08 05:59N 34°31' E 135°23'0 0.0
2018-Jun-08 05:23N 34°31' E 135°23'0 0.0
2018-Jun-08 04:53N 34°31' E 135°23'0 0.0
2018-Jun-08 04:29N 34°31' E 135°23'0 0.0
2018-Jun-08 03:53N 34°31' E 135°23'0 0.0
2018-Jun-08 03:29N 34°31' E 135°23'0 0.0
2018-Jun-08 02:53N 34°31' E 135°23'0 0.0
2018-Jun-08 02:23N 34°31' E 135°23'0 0.0
2018-Jun-07 23:35N 34°31' E 135°23'0 0.0
2018-Jun-07 23:05N 34°31' E 135°23'0 0.0
2018-Jun-07 22:35N 34°31' E 135°23'0 0.0
2018-Jun-07 22:29N 34°31' E 135°23'1 1.0
2018-Jun-07 21:59N 34°31' E 135°23'1 0.7
2018-Jun-07 20:03N 34°32' E 135°22'0 0.0
2018-Jun-07 19:39N 34°32' E 135°22'0 0.0
2018-Jun-07 19:27N 34°32' E 135°22'  

Dump ship's entire track history